• Join FlightAware (Why Join?)
  • Login
  • US Flag 
04:25PM EST


 

Airport Tracker/Info


-or-


 

Live Flight TrackerFlight Track Log ✈ ASQ4492 ✈ 19-Apr-2013 ✈ KDAL - KIAH

Flight Track Log - Related Links

Times and Time Zones

All times are in EDT time to prevent confusion due to time zone crossing. See the ASQ4492 flight status page for this flight to view local times or setup timezone preferences in your user account.

Time Position Orientation Groundspeed Altitude Reporting Facility
EDT Latitude Longitude Course Direction KTS MPH feet Rate Location/Type
06:05PM 32.8833 -96.8833 166° South 171 197 2,100  Level Dallas / Fort Worth TRACON
06:06PM 32.9167 -96.9500 301° West 239 275 4,300 1,984 Climbing Dallas / Fort Worth TRACON
06:07PM 32.6317 -96.7345 164° South  Level Estimated
06:07PM 32.8833 -97.0167 239° Southwest 233 268 6,300  Level Dallas / Fort Worth TRACON
06:08PM 32.5598 -96.6955 168° South  Level Estimated
06:08PM 32.8000 -97.0167 180° South 290 334 8,900  Level Dallas / Fort Worth TRACON
06:09PM 32.4840 -96.7216 196° South  Level FlightAware Approximate
06:10PM 32.4128 -96.6812 166° South  Level Estimated
06:10PM 32.6508 -96.9569 161° South 333 383 11,000  Level Fort Worth Center
06:11PM 32.5506 -96.9181 162° South 364 419 12,200 1,300 Climbing Fort Worth Center
06:12PM 32.4481 -96.8792 162° South 384 442 13,600 1,350 Climbing Fort Worth Center
06:13PM 32.3456 -96.8406 162° South 384 442 14,900 1,250 Climbing Fort Worth Center
06:14PM 32.2517 -96.8042 162° South 384 442 16,100 1,250 Climbing Fort Worth Center
06:15PM 32.1447 -96.7608 161° South 394 453 17,400 1,250 Climbing Fort Worth Center
06:16PM 32.0278 -96.7200 164° South 399 459 18,600 1,300 Climbing Fort Worth Center
06:17PM 31.9211 -96.6792 162° South 404 465 20,000 1,200 Climbing Fort Worth Center
06:18PM 31.8142 -96.6383 162° South 404 465 21,000 500 Climbing Fort Worth Center
06:19PM 31.6992 -96.5856 159° South 410 472 21,000  Level Fort Worth Center
06:20PM 31.5819 -96.5403 162° South 442 509 21,000  Level Fort Worth Center
06:20PM 31.5183 -96.5142 161° South 455 524 21,000  Level Houston Center
06:21PM 31.3981 -96.4697 162° South 449 517 21,000 -726 Level Houston Center
06:22PM 31.2822 -96.5047 194° South 423 487 19,500 -968 Descending Houston Center
06:23PM 31.1797 -96.5464 199° South 394 453 19,000 -240 Descending Houston Center
06:24PM 31.0853 -96.5867 200° South 363 418 19,000  Level Houston Center
06:25PM 30.9869 -96.6269 199° South 364 419 19,000  Level Houston Center
06:26PM 30.8775 -96.6275 180° South 386 444 19,000  Level Houston Center
06:27PM 30.7528 -96.6078 172° South 388 447 19,000  Level Houston Center
06:28PM 30.6844 -96.5061 128° Southeast 408 470 19,000  Level Houston Center
06:29PM 30.6417 -96.3842 112° Southeast 408 470 19,000 -97 Level Houston Center
06:30PM 30.5958 -96.2617 113° Southeast 409 471 18,800 -1,065 Descending Houston Center
06:31PM 30.5525 -96.1389 112° Southeast 407 468 16,800 -2,175 Descending Houston Center
06:32PM 30.5361 -96.0958 114° Southeast 396 456 15,900 -2,618 Descending Houston Center
06:32PM 30.5114 -96.0258 112° Southeast 383 441 14,400 -2,121 Descending Houston Center
06:33PM 30.4697 -95.9094 113° Southeast 370 426 12,400 -1,171 Descending Houston Center
06:34PM 30.4139 -95.8217 126° Southeast 329 379 12,000 -393 Descending Houston Center
06:35PM 30.3447 -95.7497 138° Southeast 322 371 11,600 -1,024 Descending Houston Center
06:37PM 30.2800 -95.6822 138° Southeast 306 352 9,900 -1,628 Descending Houston Center
06:38PM 30.2106 -95.6108 138° Southeast 296 341 8,100 -1,623 Descending Houston Center
06:39PM 30.1550 -95.5544 139° Southeast 282 325 6,600 -1,135 Descending Houston Center
06:39PM 30.1097 -95.4922 130° Southeast 278 320 6,000 -486 Descending Houston Center
06:40PM 30.1075 -95.4800 102° East 279 321 6,000  Level Houston Center
06:41PM 30.1056 -95.4011 92° East 253 291 6,000  Level Houston Center
06:42PM 30.1067 -95.3211 89° East 237 273 6,000 -49 Level Houston Center
06:43PM 30.1056 -95.2417 91° East 237 273 5,900 -237 Descending Houston Center
06:43PM 30.1064 -95.2292 86° East 237 273 5,700 -1,258 Descending Houston Center
06:44PM 30.1050 -95.1669 91° East 234 269 4,600 -1,355 Descending Houston Center
06:44PM 30.1064 -95.1536 83° East 236 272 4,300 -1,672 Descending Houston Center
06:45PM 30.0961 -95.0931 101° East 236 272 2,900 -1,548 Descending Houston Center
06:45PM 30.0917 -95.0833 118° Southeast 240 276 2,700 -871 Descending Houston Center
06:46PM 30.0408 -95.0853 182° South 220 253 2,000 -677 Descending Houston Center
06:46PM 30.0353 -95.0886 207° Southwest 222 255 2,000  Level Houston Center
06:47PM 30.0000 -95.1217 219° Southwest 185 213 2,000  Level Houston Center
06:47PM 30.0019 -95.1256 300° West 207 238 2,000  Level Houston Center
06:48PM 30.0078 -95.1917 276° West 183 211 2,000  Level Houston Center